Time;durP1;ratioP1;P1;durP2;ratioP2;P2;SDS_P1;SDS_P2;PMS_P1;PMS_P2;Temp;Humidity;BMP_temperature;BMP_pressure;BME280_temperature;BME280_humidity;BME280_pressure;Samples;Min_cycle;Max_cycle;Signal;HPM_P1;HPM_P2
2024/01/20 00:01:54;;;;;;;54.67;20.53;;;1.80;99.90;;;;;;7282806;19;20201;-77
2024/01/20 00:04:20;;;;;;;55.23;20.40;;;1.80;99.90;;;;;;7283788;19;20790;-77
2024/01/20 00:06:45;;;;;;;54.37;21.10;;;1.90;99.90;;;;;;7285646;19;20200;-77
2024/01/20 00:09:11;;;;;;;52.63;20.13;;;1.90;99.90;;;;;;7307862;19;20185;-78
2024/01/20 00:11:40;;;;;;;49.33;19.67;;;2.00;99.90;;;;;;7285565;19;20186;-77
2024/01/20 00:14:05;;;;;;;56.00;20.20;;;2.20;99.90;;;;;;7286100;19;20306;-77
2024/01/20 00:16:31;;;;;;;50.33;20.30;;;2.20;99.90;;;;;;7285303;19;20324;-78
2024/01/20 00:18:57;;;;;;;49.43;19.67;;;2.20;99.90;;;;;;7284110;19;20189;-77
2024/01/20 00:21:23;;;;;;;50.13;19.93;;;2.10;99.90;;;;;;7286216;19;20660;-77
2024/01/20 00:23:49;;;;;;;51.83;19.27;;;2.00;99.90;;;;;;7283360;19;20680;-77
2024/01/20 00:26:15;;;;;;;47.90;19.17;;;1.90;99.90;;;;;;7285688;19;20728;-77
2024/01/20 00:28:41;;;;;;;52.27;19.67;;;1.90;99.90;;;;;;7304656;19;20298;-77
2024/01/20 00:31:06;;;;;;;52.53;19.07;;;1.90;99.90;;;;;;7285490;19;20228;-77
2024/01/20 00:33:32;;;;;;;45.53;18.43;;;1.70;99.90;;;;;;7283522;19;20200;-77
2024/01/20 00:35:58;;;;;;;51.27;19.50;;;1.60;99.90;;;;;;7284892;19;20205;-77
2024/01/20 00:38:25;;;;;;;50.00;19.47;;;1.60;99.90;;;;;;7284248;19;20187;-77
2024/01/20 00:40:51;;;;;;;44.87;19.57;;;1.60;99.90;;;;;;7285381;19;20179;-78
2024/01/20 00:43:17;;;;;;;47.10;19.43;;;1.70;99.90;;;;;;7283656;19;20185;-78
2024/01/20 00:45:43;;;;;;;47.87;20.40;;;1.60;99.90;;;;;;7287138;19;20266;-77
2024/01/20 00:48:09;;;;;;;49.27;19.27;;;1.60;99.90;;;;;;7304988;19;20653;-78
2024/01/20 00:50:34;;;;;;;51.77;20.50;;;1.50;99.90;;;;;;7284001;19;20190;-78
2024/01/20 00:53:00;;;;;;;57.10;21.40;;;1.50;99.90;;;;;;7283237;19;20179;-77
2024/01/20 00:55:26;;;;;;;53.00;21.27;;;1.50;99.90;;;;;;7284006;19;20645;-77
2024/01/20 00:57:52;;;;;;;56.80;21.07;;;1.60;99.90;;;;;;7281641;19;20471;-77
2024/01/20 01:00:18;;;;;;;52.60;21.17;;;1.80;99.90;;;;;;7282366;19;20183;-76
2024/01/20 01:02:43;;;;;;;49.10;20.20;;;1.90;99.90;;;;;;7283887;19;20296;-76
2024/01/20 01:05:09;;;;;;;54.87;21.73;;;1.80;99.90;;;;;;7305004;19;20178;-77
2024/01/20 01:07:36;;;;;;;50.67;21.20;;;1.70;99.90;;;;;;7283492;19;20186;-78
2024/01/20 01:10:03;;;;;;;54.37;21.87;;;1.60;99.90;;;;;;7283142;19;20194;-76
2024/01/20 01:12:29;;;;;;;52.93;21.57;;;1.70;99.90;;;;;;7282273;19;20520;-78
2024/01/20 01:14:55;;;;;;;55.20;21.93;;;1.70;99.90;;;;;;7282887;19;20180;-77
2024/01/20 01:17:21;;;;;;;55.50;22.67;;;1.90;99.90;;;;;;7281239;19;20291;-77
2024/01/20 01:19:47;;;;;;;49.60;21.70;;;2.00;99.90;;;;;;7283137;19;20255;-77
2024/01/20 01:22:13;;;;;;;50.87;21.53;;;2.00;99.90;;;;;;7291497;19;20188;-76
2024/01/20 01:24:38;;;;;;;50.87;21.30;;;2.00;99.90;;;;;;7299632;19;20584;-77
2024/01/20 01:27:07;;;;;;;53.50;21.83;;;2.00;99.90;;;;;;7282453;19;20206;-77
2024/01/20 01:29:33;;;;;;;58.20;22.63;;;1.80;99.90;;;;;;7283092;19;20277;-78
2024/01/20 01:31:59;;;;;;;54.27;23.03;;;1.90;99.90;;;;;;7281431;19;20202;-77
2024/01/20 01:34:24;;;;;;;58.27;22.97;;;1.90;99.90;;;;;;7282483;19;20662;-78
2024/01/20 01:36:50;;;;;;;61.20;23.77;;;1.90;99.90;;;;;;7283207;19;20581;-78
2024/01/20 01:39:17;;;;;;;57.87;24.23;;;2.00;99.90;;;;;;7281772;19;20254;-76
2024/01/20 01:41:43;;;;;;;66.33;25.27;;;2.10;99.90;;;;;;7289221;19;20182;-76
2024/01/20 01:44:10;;;;;;;64.83;25.83;;;2.10;99.90;;;;;;7301328;19;20559;-77
2024/01/20 01:46:36;;;;;;;63.90;25.07;;;1.90;99.90;;;;;;7279922;19;20192;-77
2024/01/20 01:49:03;;;;;;;65.83;25.83;;;1.80;99.90;;;;;;7278644;19;20200;-77
2024/01/20 01:51:29;;;;;;;61.07;23.90;;;1.80;99.90;;;;;;7280036;19;20207;-77
2024/01/20 01:53:55;;;;;;;61.67;26.27;;;1.90;99.90;;;;;;7278076;19;20835;-77
2024/01/20 01:56:22;;;;;;;67.83;27.10;;;2.00;99.90;;;;;;7278208;19;20193;-76
2024/01/20 01:58:47;;;;;;;67.57;26.67;;;1.90;99.90;;;;;;7276401;19;20192;-76
2024/01/20 02:01:13;;;;;;;70.33;27.37;;;1.80;99.90;;;;;;7283798;19;20210;-76
2024/01/20 02:03:40;;;;;;;74.10;28.10;;;1.70;99.90;;;;;;7302863;19;20201;-78
2024/01/20 02:06:07;;;;;;;67.20;27.27;;;1.70;99.90;;;;;;7280408;19;20850;-77
2024/01/20 02:08:34;;;;;;;67.63;27.87;;;1.70;99.90;;;;;;7282658;19;20193;-77
2024/01/20 02:11:01;;;;;;;62.93;27.10;;;1.70;99.90;;;;;;7278839;19;20197;-77
2024/01/20 02:13:27;;;;;;;62.30;26.30;;;1.80;99.90;;;;;;7281170;19;20204;-77
2024/01/20 02:15:54;;;;;;;70.93;28.67;;;1.80;99.90;;;;;;7280890;19;20190;-77
2024/01/20 02:18:22;;;;;;;74.33;27.97;;;1.80;99.90;;;;;;7277535;19;20193;-76
2024/01/20 02:20:48;;;;;;;67.60;27.87;;;1.80;99.90;;;;;;7279191;19;20198;-77
2024/01/20 02:23:14;;;;;;;64.90;27.97;;;1.80;99.90;;;;;;7277170;19;20691;-77
2024/01/20 02:25:39;;;;;;;72.90;27.50;;;1.80;99.90;;;;;;7299697;19;20200;-78
2024/01/20 02:28:06;;;;;;;64.77;27.07;;;1.80;99.90;;;;;;7279992;19;20263;-78
2024/01/20 02:30:31;;;;;;;63.13;26.77;;;1.80;99.90;;;;;;7279347;19;20185;-78
2024/01/20 02:32:57;;;;;;;61.60;25.27;;;1.80;99.90;;;;;;7280005;19;20195;-77
2024/01/20 02:35:23;;;;;;;61.53;25.03;;;1.70;99.90;;;;;;7280170;19;20193;-76
2024/01/20 02:37:49;;;;;;;55.93;23.87;;;1.70;99.90;;;;;;7279218;19;20180;-76
2024/01/20 02:40:15;;;;;;;58.20;25.10;;;1.80;99.90;;;;;;7280181;19;20228;-76
2024/01/20 02:42:40;;;;;;;54.47;23.50;;;1.90;99.90;;;;;;7300934;19;20287;-78
2024/01/20 02:45:06;;;;;;;49.57;22.03;;;1.90;99.90;;;;;;7279232;19;20204;-76
2024/01/20 02:47:32;;;;;;;47.20;20.47;;;2.00;99.90;;;;;;7280441;19;20205;-77
2024/01/20 02:49:58;;;;;;;52.97;21.97;;;2.10;99.90;;;;;;7279078;19;20189;-76
2024/01/20 02:52:23;;;;;;;50.57;21.70;;;2.20;99.90;;;;;;7277849;19;20198;-76
2024/01/20 02:54:49;;;;;;;52.30;21.90;;;2.20;99.90;;;;;;7277654;19;20228;-76
2024/01/20 02:57:16;;;;;;;47.80;21.10;;;2.20;99.90;;;;;;7275996;19;20188;-75
2024/01/20 02:59:41;;;;;;;47.83;21.60;;;2.10;99.90;;;;;;7298755;19;20258;-77
2024/01/20 03:02:07;;;;;;;50.70;21.17;;;2.10;99.90;;;;;;7279141;19;20702;-77
2024/01/20 03:04:33;;;;;;;47.03;20.40;;;1.90;99.90;;;;;;7277852;19;20184;-76
2024/01/20 03:06:58;;;;;;;50.30;21.73;;;1.80;99.90;;;;;;7284279;19;20251;-76
2024/01/20 03:09:24;;;;;;;47.50;20.50;;;1.70;99.90;;;;;;7284266;19;20217;-80
2024/01/20 03:11:50;;;;;;;43.63;19.50;;;1.60;99.90;;;;;;7284416;19;20194;-77
2024/01/20 03:14:15;;;;;;;43.33;19.17;;;1.40;99.90;;;;;;7286325;19;20249;-76
2024/01/20 03:16:41;;;;;;;47.63;20.40;;;1.30;99.90;;;;;;7308149;19;20211;-77
2024/01/20 03:19:08;;;;;;;48.43;20.43;;;1.30;99.90;;;;;;7287084;19;20207;-77
2024/01/20 03:21:36;;;;;;;46.17;20.13;;;1.30;99.90;;;;;;7286535;19;20190;-77
2024/01/20 03:24:02;;;;;;;51.17;21.50;;;1.30;99.90;;;;;;7285618;19;21064;-78
2024/01/20 03:26:27;;;;;;;50.70;21.73;;;1.50;99.90;;;;;;7284781;19;20204;-78
2024/01/20 03:28:53;;;;;;;54.80;22.23;;;1.60;99.90;;;;;;7285086;19;20197;-77
2024/01/20 03:31:19;;;;;;;52.20;21.60;;;1.50;99.90;;;;;;7283695;19;20200;-76
2024/01/20 03:33:45;;;;;;;52.70;22.70;;;1.60;99.90;;;;;;7284829;19;20197;-76
2024/01/20 03:36:11;;;;;;;59.20;24.77;;;1.60;99.90;;;;;;7307360;19;20190;-78
2024/01/20 03:38:37;;;;;;;58.20;24.03;;;1.60;99.90;;;;;;7283806;19;20187;-77
2024/01/20 03:41:03;;;;;;;56.53;22.80;;;1.60;99.90;;;;;;7285395;19;20198;-77
2024/01/20 03:43:28;;;;;;;61.50;23.60;;;1.60;99.90;;;;;;7284508;19;20266;-78
2024/01/20 03:45:55;;;;;;;52.83;22.63;;;1.60;99.90;;;;;;7283625;19;20201;-79
2024/01/20 03:48:21;;;;;;;53.73;21.03;;;1.60;99.90;;;;;;7285257;19;20196;-78
2024/01/20 03:50:47;;;;;;;48.03;20.43;;;1.60;99.90;;;;;;7283669;19;20658;-76
2024/01/20 03:53:13;;;;;;;47.93;20.83;;;1.60;99.90;;;;;;7300364;19;20226;-74
2024/01/20 03:55:39;;;;;;;50.03;22.23;;;1.50;99.90;;;;;;7304396;19;20198;-76
2024/01/20 03:58:05;;;;;;;56.10;23.10;;;1.60;99.90;;;;;;7285679;19;20206;-77
2024/01/20 04:00:31;;;;;;;66.10;25.23;;;1.60;99.90;;;;;;7286256;19;20188;-76
2024/01/20 04:02:56;;;;;;;70.83;28.07;;;1.60;99.90;;;;;;7284480;19;20194;-76
2024/01/20 04:05:22;;;;;;;70.00;27.70;;;1.50;99.90;;;;;;7284160;19;20193;-76
2024/01/20 04:07:48;;;;;;;66.77;27.00;;;1.50;99.90;;;;;;7285035;19;20249;-75
2024/01/20 04:10:14;;;;;;;60.97;26.57;;;1.40;99.90;;;;;;7287395;19;20190;-75
2024/01/20 04:12:41;;;;;;;64.67;26.70;;;1.20;99.90;;;;;;7305172;19;20195;-76
2024/01/20 04:15:07;;;;;;;66.50;27.83;;;1.30;99.90;;;;;;7283139;19;20185;-76
2024/01/20 04:17:33;;;;;;;62.53;25.83;;;1.20;99.90;;;;;;7282991;19;20206;-75
2024/01/20 04:19:59;;;;;;;68.00;27.40;;;1.20;99.90;;;;;;7284435;19;20191;-77
2024/01/20 04:22:25;;;;;;;68.27;27.00;;;1.10;99.90;;;;;;7285015;19;20452;-76
2024/01/20 04:24:50;;;;;;;64.33;25.60;;;1.10;99.90;;;;;;7283780;19;20196;-76
2024/01/20 04:27:16;;;;;;;61.30;25.13;;;1.00;99.90;;;;;;7284066;19;20281;-76
2024/01/20 04:29:42;;;;;;;60.63;25.50;;;1.10;99.90;;;;;;7304622;19;20196;-77
2024/01/20 04:32:07;;;;;;;60.77;24.77;;;1.20;99.90;;;;;;7282031;19;20677;-77
2024/01/20 04:34:33;;;;;;;45.33;20.97;;;1.40;99.90;;;;;;7282802;19;20182;-76
2024/01/20 04:36:59;;;;;;;50.40;21.60;;;1.40;99.90;;;;;;7282188;19;20225;-77
2024/01/20 04:39:24;;;;;;;46.07;20.57;;;1.40;99.90;;;;;;7283267;19;20198;-77
2024/01/20 04:41:50;;;;;;;53.87;21.73;;;1.30;99.90;;;;;;7283221;19;20206;-76
2024/01/20 04:44:16;;;;;;;45.40;19.23;;;1.20;99.90;;;;;;7282888;19;20185;-77
2024/01/20 04:46:41;;;;;;;47.30;20.83;;;1.10;99.90;;;;;;7307623;19;20202;-76
2024/01/20 04:49:07;;;;;;;47.57;20.47;;;1.00;99.90;;;;;;7284998;19;20200;-77
2024/01/20 04:51:33;;;;;;;46.40;20.70;;;1.00;99.90;;;;;;7284089;19;20192;-76
2024/01/20 04:53:58;;;;;;;45.27;21.80;;;1.10;99.90;;;;;;7282481;19;20197;-77
2024/01/20 04:56:24;;;;;;;46.43;20.37;;;1.10;99.90;;;;;;7284003;19;20223;-76
2024/01/20 04:58:51;;;;;;;48.73;21.37;;;1.10;99.90;;;;;;7282138;19;20183;-76
2024/01/20 05:01:17;;;;;;;51.93;21.63;;;1.00;99.90;;;;;;7284820;19;20187;-76
2024/01/20 05:03:43;;;;;;;48.73;22.00;;;1.10;99.90;;;;;;7293585;19;20193;-76
2024/01/20 05:06:09;;;;;;;51.77;23.33;;;1.20;99.90;;;;;;7300892;19;20694;-77
2024/01/20 05:08:35;;;;;;;54.67;23.63;;;1.00;99.90;;;;;;7282630;19;20253;-77
2024/01/20 05:11:00;;;;;;;55.20;24.30;;;1.00;99.90;;;;;;7283110;19;20251;-77
2024/01/20 05:13:26;;;;;;;53.57;23.60;;;0.70;99.90;;;;;;7284702;19;20675;-77
2024/01/20 05:15:53;;;;;;;54.90;23.40;;;0.70;99.90;;;;;;7282006;19;20260;-78
2024/01/20 05:18:19;;;;;;;58.83;24.83;;;0.60;99.90;;;;;;7281374;19;20206;-76
2024/01/20 05:20:45;;;;;;;57.90;23.30;;;0.50;99.90;;;;;;7283262;19;20185;-76
2024/01/20 05:23:11;;;;;;;53.23;22.57;;;0.50;99.90;;;;;;7303768;19;20252;-76
2024/01/20 05:25:38;;;;;;;62.27;25.30;;;0.50;99.90;;;;;;7282697;19;20197;-77
2024/01/20 05:28:04;;;;;;;56.10;24.47;;;0.50;99.90;;;;;;7278476;19;20190;-80
2024/01/20 05:30:29;;;;;;;56.50;24.07;;;0.60;99.90;;;;;;7278964;19;20196;-76
2024/01/20 05:32:55;;;;;;;59.57;25.03;;;0.70;99.90;;;;;;7280602;19;20581;-77
2024/01/20 05:35:21;;;;;;;61.63;26.50;;;0.70;99.90;;;;;;7282310;19;20185;-76
2024/01/20 05:37:46;;;;;;;61.30;25.17;;;0.80;99.90;;;;;;7279748;19;20200;-76
2024/01/20 05:40:12;;;;;;;60.23;26.13;;;0.70;99.90;;;;;;7302133;19;20190;-77
2024/01/20 05:42:38;;;;;;;61.87;25.93;;;0.60;99.90;;;;;;7283283;19;20234;-77
2024/01/20 05:45:08;;;;;;;60.73;26.00;;;0.70;99.90;;;;;;7278313;19;20195;-76
2024/01/20 05:47:37;;;;;;;59.37;25.50;;;0.70;99.90;;;;;;7279544;19;20179;-77
2024/01/20 05:50:06;;;;;;;60.87;25.37;;;0.70;99.90;;;;;;7281154;19;20720;-77
2024/01/20 05:52:32;;;;;;;57.57;24.70;;;0.80;99.90;;;;;;7281595;19;20185;-77
2024/01/20 05:54:58;;;;;;;58.70;24.63;;;0.70;99.90;;;;;;7281970;19;20215;-78
2024/01/20 05:57:23;;;;;;;56.63;24.53;;;0.80;99.90;;;;;;7282739;19;20200;-77
2024/01/20 05:59:50;;;;;;;50.43;21.97;;;0.90;99.90;;;;;;7280225;19;20627;-76
2024/01/20 06:02:16;;;;;;;55.13;22.53;;;0.90;99.90;;;;;;7279918;19;20227;-76
2024/01/20 06:04:41;;;;;;;62.10;24.57;;;0.90;99.90;;;;;;7303624;19;20640;-77
2024/01/20 06:07:07;;;;;;;53.13;23.07;;;0.90;99.90;;;;;;7280239;19;20189;-77
2024/01/20 06:09:33;;;;;;;51.13;22.43;;;1.10;99.90;;;;;;7280546;19;20206;-77
2024/01/20 06:11:58;;;;;;;46.17;21.23;;;1.10;99.90;;;;;;7279057;19;20267;-77
2024/01/20 06:14:24;;;;;;;48.63;21.57;;;1.00;99.90;;;;;;7282424;19;20190;-78
2024/01/20 06:16:50;;;;;;;51.87;21.60;;;1.00;99.90;;;;;;7281229;19;20202;-76
2024/01/20 06:19:16;;;;;;;50.90;21.70;;;1.10;99.90;;;;;;7281796;19;20194;-76
2024/01/20 06:21:42;;;;;;;47.07;21.50;;;1.10;99.90;;;;;;7302792;19;20225;-77
2024/01/20 06:24:07;;;;;;;50.63;22.63;;;1.20;99.90;;;;;;7279049;19;20270;-77
2024/01/20 06:26:33;;;;;;;50.10;21.90;;;1.20;99.90;;;;;;7280690;19;20206;-77
2024/01/20 06:28:59;;;;;;;47.47;21.23;;;1.30;99.90;;;;;;7281107;19;20224;-78
2024/01/20 06:31:26;;;;;;;49.87;21.47;;;1.20;99.90;;;;;;7279188;19;20189;-77
2024/01/20 06:33:52;;;;;;;48.70;20.50;;;1.30;99.90;;;;;;7279531;19;20193;-76
2024/01/20 06:36:21;;;;;;;46.70;19.53;;;1.30;99.90;;;;;;7278649;19;20179;-77
2024/01/20 06:38:47;;;;;;;43.33;17.63;;;1.30;99.90;;;;;;7278745;19;20181;-77
2024/01/20 06:41:15;;;;;;;42.03;18.37;;;1.30;99.90;;;;;;7300549;19;20198;-76
2024/01/20 06:43:40;;;;;;;37.73;15.73;;;1.20;99.90;;;;;;7309966;19;20193;-77
2024/01/20 06:46:07;;;;;;;39.87;17.83;;;1.10;99.90;;;;;;7284382;19;20190;-77
2024/01/20 06:48:34;;;;;;;41.77;17.57;;;1.10;99.90;;;;;;7286347;19;20205;-78
2024/01/20 06:51:03;;;;;;;40.70;16.63;;;1.10;99.90;;;;;;7287233;19;20187;-77
2024/01/20 06:53:30;;;;;;;38.40;17.27;;;1.20;99.90;;;;;;7288302;19;20191;-77
2024/01/20 06:55:56;;;;;;;43.77;18.10;;;1.20;99.90;;;;;;7288041;19;20531;-77
2024/01/20 06:58:22;;;;;;;37.47;18.17;;;1.20;99.90;;;;;;7286136;19;20195;-77
2024/01/20 07:00:48;;;;;;;41.73;17.37;;;1.10;99.90;;;;;;7288521;19;20197;-76
2024/01/20 07:03:14;;;;;;;42.73;18.67;;;1.20;99.90;;;;;;7296065;19;20182;-77
2024/01/20 07:05:41;;;;;;;43.83;18.90;;;1.20;99.90;;;;;;7308325;19;20190;-77
2024/01/20 07:08:06;;;;;;;45.63;18.17;;;1.10;99.90;;;;;;7283051;19;20214;-78
2024/01/20 07:10:32;;;;;;;39.73;17.67;;;1.20;99.90;;;;;;7285929;19;20190;-78
2024/01/20 07:12:58;;;;;;;39.20;16.90;;;1.20;99.90;;;;;;7283782;19;20301;-77
2024/01/20 07:15:24;;;;;;;39.87;19.10;;;1.40;99.90;;;;;;7286498;19;20269;-77
2024/01/20 07:17:50;;;;;;;38.63;16.53;;;1.50;99.90;;;;;;7284723;19;20204;-76
2024/01/20 07:20:15;;;;;;;38.30;17.37;;;1.50;99.90;;;;;;7287392;19;20291;-76
2024/01/20 07:22:41;;;;;;;47.43;18.90;;;1.50;99.90;;;;;;7308077;19;20205;-78
2024/01/20 07:25:08;;;;;;;37.90;16.93;;;1.40;99.90;;;;;;7285513;19;20193;-78
2024/01/20 07:27:34;;;;;;;46.77;18.13;;;1.40;99.90;;;;;;7285740;19;20192;-77
2024/01/20 07:30:00;;;;;;;40.77;17.77;;;1.50;99.90;;;;;;7286618;19;20647;-79
2024/01/20 07:32:26;;;;;;;40.93;18.47;;;1.50;99.90;;;;;;7284472;19;20197;-76
2024/01/20 07:34:52;;;;;;;41.03;17.63;;;1.30;99.90;;;;;;7286618;19;20197;-76
2024/01/20 07:37:17;;;;;;;42.57;18.27;;;1.30;99.90;;;;;;7285511;19;21000;-77
2024/01/20 07:39:43;;;;;;;42.93;19.07;;;1.20;99.90;;;;;;7305345;19;20217;-77
2024/01/20 07:42:10;;;;;;;40.90;19.10;;;1.20;99.90;;;;;;7297670;19;20193;-78
2024/01/20 07:44:36;;;;;;;40.57;17.83;;;1.20;99.90;;;;;;7284954;19;20657;-76
2024/01/20 07:47:02;;;;;;;43.03;18.57;;;1.10;99.90;;;;;;7285306;19;20196;-77
2024/01/20 07:49:28;;;;;;;41.57;18.40;;;1.10;99.90;;;;;;7286198;19;20189;-77
2024/01/20 07:51:53;;;;;;;43.60;18.87;;;1.00;99.90;;;;;;7284870;19;20652;-77
2024/01/20 07:54:19;;;;;;;41.20;18.47;;;1.00;99.90;;;;;;7285029;19;20177;-77
2024/01/20 07:56:45;;;;;;;46.27;19.37;;;0.90;99.90;;;;;;7288461;19;20200;-77
2024/01/20 07:59:10;;;;;;;43.67;18.37;;;1.00;99.90;;;;;;7307597;19;20200;-77
2024/01/20 08:01:36;;;;;;;42.37;18.70;;;1.00;99.90;;;;;;7285206;19;20735;-78
2024/01/20 08:04:02;;;;;;;44.50;18.97;;;0.90;99.90;;;;;;7286941;19;20189;-77
2024/01/20 08:06:28;;;;;;;39.50;18.00;;;0.90;99.90;;;;;;7285759;19;20640;-77
2024/01/20 08:08:53;;;;;;;38.93;17.93;;;0.70;99.90;;;;;;7284770;19;20283;-77
2024/01/20 08:11:19;;;;;;;43.03;18.23;;;0.70;99.90;;;;;;7284221;19;20183;-77
2024/01/20 08:13:45;;;;;;;37.10;18.10;;;0.70;99.90;;;;;;7288313;19;20193;-76
2024/01/20 08:16:10;;;;;;;42.43;18.23;;;0.80;99.90;;;;;;7305772;19;20185;-77
2024/01/20 08:18:36;;;;;;;44.43;18.80;;;0.90;99.90;;;;;;7282963;19;20214;-78
2024/01/20 08:21:06;;;;;;;45.03;19.33;;;0.70;99.90;;;;;;7285291;19;20181;-78
2024/01/20 08:23:33;;;;;;;41.33;18.40;;;0.80;99.90;;;;;;7285003;19;20252;-77
2024/01/20 08:25:58;;;;;;;36.10;16.90;;;0.80;99.90;;;;;;7283609;19;20222;-77
2024/01/20 08:28:24;;;;;;;35.67;17.17;;;0.70;99.90;;;;;;7282119;19;20518;-77
2024/01/20 08:30:50;;;;;;;36.07;16.80;;;0.80;99.90;;;;;;7282454;19;20253;-76
2024/01/20 08:33:16;;;;;;;33.33;15.50;;;0.90;99.90;;;;;;7283377;19;20185;-77
2024/01/20 08:35:41;;;;;;;34.50;15.27;;;1.00;99.90;;;;;;7307596;19;20190;-78
2024/01/20 08:38:07;;;;;;;33.80;16.77;;;1.10;99.90;;;;;;7282764;19;20344;-78
2024/01/20 08:40:33;;;;;;;33.40;15.47;;;1.20;99.90;;;;;;7285963;19;20228;-77
2024/01/20 08:42:58;;;;;;;35.00;15.20;;;1.30;99.90;;;;;;7285326;19;20213;-77
2024/01/20 08:45:24;;;;;;;228.07;25.47;;;1.20;99.90;;;;;;7284861;19;20201;-78
2024/01/20 08:47:50;;;;;;;38.27;17.57;;;1.30;99.90;;;;;;7284842;19;20198;-77
2024/01/20 08:50:16;;;;;;;32.10;16.70;;;1.50;99.90;;;;;;7282901;19;20184;-76
2024/01/20 08:52:41;;;;;;;36.33;16.73;;;1.20;99.90;;;;;;7306449;19;20215;-77
2024/01/20 08:55:07;;;;;;;38.10;17.43;;;1.10;99.90;;;;;;7283458;19;20194;-78
2024/01/20 08:57:33;;;;;;;36.00;17.40;;;1.20;99.90;;;;;;7284879;19;21626;-78
2024/01/20 08:59:59;;;;;;;33.87;15.20;;;1.30;99.90;;;;;;7283676;19;20304;-78
2024/01/20 09:02:25;;;;;;;28.13;13.70;;;1.20;99.90;;;;;;7281036;19;20654;-78
2024/01/20 09:04:51;;;;;;;28.93;13.47;;;0.90;99.90;;;;;;7288325;19;20185;-77
2024/01/20 09:07:17;;;;;;;28.50;14.63;;;0.90;99.90;;;;;;7295945;19;20206;-77
2024/01/20 09:09:43;;;;;;;32.90;14.53;;;0.80;99.90;;;;;;7313308;19;20172;-78
2024/01/20 09:12:08;;;;;;;29.53;15.30;;;0.90;99.90;;;;;;7293567;19;20193;-78
2024/01/20 09:14:36;;;;;;;32.00;15.67;;;0.90;99.90;;;;;;7283759;19;20266;-77
2024/01/20 09:17:02;;;;;;;29.87;15.03;;;1.10;99.90;;;;;;7280736;19;20637;-78
2024/01/20 09:19:27;;;;;;;26.30;13.47;;;1.30;99.90;;;;;;7283999;19;20181;-77
2024/01/20 09:21:53;;;;;;;31.73;13.63;;;1.00;99.90;;;;;;7286529;19;20193;-77
2024/01/20 09:24:19;;;;;;;31.07;13.97;;;0.70;99.90;;;;;;7282113;19;20205;-77
2024/01/20 09:26:44;;;;;;;32.13;13.33;;;0.70;99.90;;;;;;7290265;19;20272;-76
2024/01/20 09:29:10;;;;;;;28.47;13.03;;;0.50;99.90;;;;;;7307938;19;20205;-77
2024/01/20 09:31:36;;;;;;;30.03;13.47;;;0.60;99.90;;;;;;7283264;19;20285;-78
2024/01/20 09:34:03;;;;;;;27.80;13.33;;;0.80;99.90;;;;;;7282413;19;20244;-78
2024/01/20 09:36:29;;;;;;;29.10;14.90;;;0.90;99.90;;;;;;7284791;19;20213;-78
2024/01/20 09:38:54;;;;;;;28.50;14.50;;;0.90;99.90;;;;;;7282354;19;20834;-78
2024/01/20 09:41:20;;;;;;;30.03;14.97;;;1.00;99.90;;;;;;7284942;19;20284;-78
2024/01/20 09:43:47;;;;;;;28.13;13.83;;;1.20;99.90;;;;;;7279677;19;20561;-78
2024/01/20 09:46:13;;;;;;;28.53;13.83;;;1.50;99.90;;;;;;7304291;19;20296;-76
2024/01/20 09:48:39;;;;;;;29.03;13.70;;;1.70;99.90;;;;;;7285118;19;20283;-77
2024/01/20 09:51:06;;;;;;;25.63;13.03;;;1.60;99.90;;;;;;7279927;19;20191;-76
2024/01/20 09:53:34;;;;;;;25.27;13.10;;;2.00;99.90;;;;;;7280151;19;20181;-76
2024/01/20 09:56:00;;;;;;;22.47;11.97;;;2.00;99.90;;;;;;7279354;19;20216;-77
2024/01/20 09:58:28;;;;;;;24.27;11.47;;;2.00;99.90;;;;;;7280719;19;20182;-77
2024/01/20 10:00:55;;;;;;;23.50;11.77;;;1.80;99.90;;;;;;7281292;19;20203;-78
2024/01/20 10:03:24;;;;;;;23.10;11.60;;;1.40;99.90;;;;;;7281950;19;20209;-78
2024/01/20 10:05:52;;;;;;;25.10;11.80;;;1.20;99.90;;;;;;7280661;19;20716;-78
2024/01/20 10:08:18;;;;;;;23.93;11.73;;;1.20;99.90;;;;;;7281310;19;20211;-77
2024/01/20 10:10:43;;;;;;;25.03;12.60;;;1.20;99.90;;;;;;7302588;19;20202;-78
2024/01/20 10:13:09;;;;;;;25.40;12.03;;;1.30;99.90;;;;;;7280956;19;20585;-78
2024/01/20 10:15:35;;;;;;;23.77;12.27;;;1.10;99.90;;;;;;7281818;19;20178;-76
2024/01/20 10:18:09;;;;;;;24.27;12.23;;;1.00;99.90;;;;;;7286178;19;20202;-77
2024/01/20 10:20:35;;;;;;;29.40;12.70;;;1.20;99.90;;;;;;7288850;19;20182;-76
2024/01/20 10:23:03;;;;;;;24.13;12.50;;;1.40;99.90;;;;;;7287124;19;20197;-76
2024/01/20 10:25:30;;;;;;;19.57;10.13;;;2.10;99.90;;;;;;7286913;19;20194;-76
2024/01/20 10:27:56;;;;;;;22.10;11.60;;;2.80;99.90;;;;;;7286892;19;20257;-77
2024/01/20 10:30:22;;;;;;;23.20;11.57;;;3.40;99.90;;;;;;7286589;19;20222;-77
2024/01/20 10:32:48;;;;;;;21.80;12.17;;;3.70;99.90;;;;;;7283483;19;20190;-77
2024/01/20 10:35:14;;;;;;;22.63;11.27;;;4.60;99.90;;;;;;7298495;19;20197;-76
2024/01/20 10:37:46;;;;;;;23.33;12.23;;;5.30;99.90;;;;;;7305708;19;20186;-77
2024/01/20 10:40:12;;;;;;;22.10;11.87;;;6.50;99.90;;;;;;7288449;19;20730;-78
2024/01/20 10:42:46;;;;;;;21.60;12.10;;;7.50;99.90;;;;;;7285142;19;20199;-77
2024/01/20 10:45:19;;;;;;;21.70;12.47;;;8.50;99.90;;;;;;7286549;19;20180;-77
2024/01/20 10:48:06;;;;;;;21.87;12.40;;;9.80;99.90;;;;;;7274637;19;20178;-77
2024/01/20 10:50:35;;;;;;;21.17;12.20;;;11.20;99.90;;;;;;7284948;19;20196;-77
2024/01/20 10:53:03;;;;;;;22.83;13.53;;;12.00;99.90;;;;;;7284260;19;20181;-77
2024/01/20 10:55:31;;;;;;;26.00;15.23;;;12.70;99.90;;;;;;7280737;19;20248;-76
2024/01/20 10:57:59;;;;;;;18.67;11.70;;;13.40;99.90;;;;;;7280369;19;20186;-78
2024/01/20 11:00:25;;;;;;;21.60;12.50;;;12.50;99.90;;;;;;7284960;19;20197;-77
2024/01/20 11:02:51;;;;;;;29.23;17.10;;;12.70;99.90;;;;;;7283975;19;20867;-75
2024/01/20 11:05:18;;;;;;;21.93;12.40;;;13.20;99.90;;;;;;7285553;19;20199;-76
2024/01/20 11:07:57;;;;;;;19.83;11.87;;;13.40;99.90;;;;;;7303900;19;20276;-77
2024/01/20 11:10:24;;;;;;;18.93;12.13;;;14.10;99.90;;;;;;7284696;19;20223;-75
2024/01/20 11:13:03;;;;;;;20.03;11.90;;;14.70;98.80;;;;;;7282840;19;20666;-78
2024/01/20 11:15:32;;;;;;;21.37;11.70;;;14.70;97.50;;;;;;7283672;19;20201;-77
2024/01/20 11:17:59;;;;;;;20.53;11.63;;;14.70;96.00;;;;;;7285790;19;20192;-77
2024/01/20 11:20:25;;;;;;;18.60;11.83;;;13.90;95.30;;;;;;7285462;19;20518;-77
2024/01/20 11:22:52;;;;;;;20.30;12.00;;;13.80;96.50;;;;;;7285742;19;20185;-77
2024/01/20 11:25:19;;;;;;;21.00;12.67;;;13.90;96.40;;;;;;7284557;19;20295;-77
2024/01/20 11:27:54;;;;;;;22.60;12.77;;;14.10;95.50;;;;;;7297467;19;20218;-77
2024/01/20 11:30:28;;;;;;;20.07;12.80;;;14.30;94.60;;;;;;7286260;19;20604;-78
2024/01/20 11:32:54;;;;;;;20.43;12.37;;;14.60;94.80;;;;;;7283746;19;20214;-78
2024/01/20 11:35:20;;;;;;;23.07;13.20;;;14.70;93.80;;;;;;7283954;19;20535;-77
2024/01/20 11:37:47;;;;;;;20.10;13.53;;;14.60;93.50;;;;;;7281915;19;20196;-77
2024/01/20 11:40:13;;;;;;;21.63;13.87;;;14.80;93.90;;;;;;7306967;19;20187;-78
2024/01/20 11:42:39;;;;;;;22.37;13.27;;;15.00;93.10;;;;;;7285549;19;20200;-78
2024/01/20 11:45:06;;;;;;;21.23;12.90;;;14.50;92.80;;;;;;7286163;19;20203;-80
2024/01/20 11:47:32;;;;;;;21.83;13.17;;;14.70;92.70;;;;;;7285461;19;20210;-80
2024/01/20 11:49:58;;;;;;;19.10;11.87;;;14.70;92.40;;;;;;7285037;19;20562;-79
2024/01/20 11:52:25;;;;;;;21.23;13.53;;;15.10;91.90;;;;;;7285532;19;20266;-78
2024/01/20 11:54:51;;;;;;;19.40;11.83;;;15.10;90.80;;;;;;7284335;19;20235;-78
2024/01/20 11:57:21;;;;;;;23.43;12.60;;;15.00;90.50;;;;;;7285085;19;20187;-77
2024/01/20 11:59:47;;;;;;;19.13;12.53;;;14.90;91.10;;;;;;7283228;19;20588;-76
2024/01/20 12:02:13;;;;;;;19.50;12.53;;;14.50;90.90;;;;;;7304962;19;20204;-77
2024/01/20 12:04:39;;;;;;;21.77;13.50;;;14.60;90.70;;;;;;7284064;19;20206;-77
2024/01/20 12:07:06;;;;;;;21.23;12.23;;;14.70;91.60;;;;;;7283949;19;20675;-78
2024/01/20 12:09:31;;;;;;;20.43;11.63;;;14.00;91.00;;;;;;7283772;19;20195;-78
2024/01/20 12:11:57;;;;;;;17.83;11.50;;;14.20;91.30;;;;;;7283660;19;20191;-78
2024/01/20 12:14:22;;;;;;;22.03;13.37;;;14.20;90.90;;;;;;7283550;19;20718;-77
2024/01/20 12:16:49;;;;;;;24.07;15.40;;;14.20;91.50;;;;;;7283087;19;20328;-76
2024/01/20 12:19:17;;;;;;;23.57;13.17;;;13.90;91.20;;;;;;7293957;19;20193;-77
2024/01/20 12:21:44;;;;;;;22.17;12.63;;;12.90;92.30;;;;;;7307937;19;20607;-77
2024/01/20 12:24:11;;;;;;;21.00;11.70;;;13.20;92.50;;;;;;7283816;19;20201;-77
2024/01/20 12:26:37;;;;;;;22.37;12.40;;;12.70;92.00;;;;;;7286444;19;20194;-77
2024/01/20 12:29:03;;;;;;;19.83;12.30;;;12.10;93.30;;;;;;7285388;19;20193;-77
2024/01/20 12:31:30;;;;;;;21.70;11.97;;;12.20;93.60;;;;;;7281913;19;20223;-77